Time;durP1;ratioP1;P1;durP2;ratioP2;P2;SDS_P1;SDS_P2;PMS_P1;PMS_P2;Temp;Humidity;BMP_temperature;BMP_pressure;BME280_temperature;BME280_humidity;BME280_pressure;Samples;Min_cycle;Max_cycle;Signal;HPM_P1;HPM_P2
2021/12/18 10:32:44;;;;;;;;;23.50;19.50;;;;;;;;4999721;27;46101;-84
2021/12/18 10:35:10;;;;;;;;;21.50;18.25;;;;;;;;4983770;27;45923;-79
2021/12/18 10:37:35;;;;;;;;;19.33;18.67;;;;;;;;4990163;27;45532;-80
2021/12/18 10:40:06;;;;;;;;;18.50;16.25;;;;;;;;4975254;27;45505;-71
2021/12/18 10:42:36;;;;;;;;;16.50;16.50;;;;;;;;4970521;27;46278;-77
2021/12/18 10:45:04;;;;;;;;;22.00;16.50;;;;;;;;4974640;27;45764;-76
2021/12/18 10:47:48;;;;;;;;;23.25;17.75;;;;;;;;4973319;27;45469;-77
2021/12/18 10:50:15;;;;;;;;;19.50;18.75;;;;;;;;4982004;27;45473;-77
2021/12/18 10:52:40;;;;;;;;;17.50;16.50;;;;;;;;4979594;27;45444;-76
2021/12/18 10:55:06;;;;;;;;;24.50;19.75;;;;;;;;4979091;27;45598;-76
2021/12/18 10:57:31;;;;;;;;;16.50;14.75;;;;;;;;4972065;27;45419;-77
2021/12/18 10:59:58;;;;;;;;;23.00;20.25;;;;;;;;4971045;27;45580;-77
2021/12/18 11:02:26;;;;;;;;;21.00;15.50;;;;;;;;4970549;27;47003;-77
2021/12/18 11:04:51;;;;;;;;;22.75;18.75;;;;;;;;4971768;27;45682;-83
2021/12/18 11:07:19;;;;;;;;;22.50;19.50;;;;;;;;4985759;27;45394;-70
2021/12/18 11:15:12;;;;;;;;;23.75;18.25;;;;;;;;4983029;27;46280;-70
2021/12/18 11:17:38;;;;;;;;;23.33;20.00;;;;;;;;5027087;27;45487;-69
2021/12/18 11:20:03;;;;;;;;;18.50;16.50;;;;;;;;4983615;28;45493;-70
2021/12/18 11:22:29;;;;;;;;;27.25;17.50;;;;;;;;4981675;28;45374;-69
2021/12/18 11:25:02;;;;;;;;;18.50;18.00;;;;;;;;4979997;28;45442;-69
2021/12/18 11:27:28;;;;;;;;;17.75;15.50;;;;;;;;4978208;28;45572;-68
2021/12/18 11:29:56;;;;;;;;;11.25;11.25;;;;;;;;4985848;28;45563;-69
2021/12/18 11:32:22;;;;;;;;;25.75;17.00;;;;;;;;4981175;28;46078;-68
2021/12/18 11:34:49;;;;;;;;;22.25;18.75;;;;;;;;4982754;28;45686;-68
2021/12/18 11:37:17;;;;;;;;;18.75;17.00;;;;;;;;4978122;27;45493;-69
2021/12/18 11:39:44;;;;;;;;;25.75;19.25;;;;;;;;4976822;28;45477;-68
2021/12/18 11:42:09;;;;;;;;;24.50;19.75;;;;;;;;4984432;28;46394;-68
2021/12/18 11:44:37;;;;;;;;;21.75;19.00;;;;;;;;4968429;28;45721;-68
2021/12/18 11:47:21;;;;;;;;;20.75;18.00;;;;;;;;4969752;28;45336;-69
2021/12/18 11:49:46;;;;;;;;;20.00;17.00;;;;;;;;4978529;28;45609;-68
2021/12/18 11:52:12;;;;;;;;;19.00;18.00;;;;;;;;4965416;28;46160;-68
2021/12/18 11:54:39;;;;;;;;;17.50;14.75;;;;;;;;5000635;28;45482;-68
2021/12/18 11:57:04;;;;;;;;;17.75;14.75;;;;;;;;4997834;28;45635;-69
2021/12/18 11:59:37;;;;;;;;;23.00;16.00;;;;;;;;5010920;28;45599;-68
2021/12/18 12:02:02;;;;;;;;;22.75;16.75;;;;;;;;4975782;28;46125;-68
2021/12/18 12:04:27;;;;;;;;;18.50;16.00;;;;;;;;4967399;28;45347;-78
2021/12/18 12:06:52;;;;;;;;;19.33;15.67;;;;;;;;4965381;28;45622;-67
2021/12/18 12:09:36;;;;;;;;;17.67;14.33;;;;;;;;4971163;28;45509;-69
2021/12/18 12:12:06;;;;;;;;;18.75;18.00;;;;;;;;4960311;28;47074;-69
2021/12/18 12:14:33;;;;;;;;;19.50;17.00;;;;;;;;4964859;28;46210;-68
2021/12/18 12:17:21;;;;;;;;;19.50;17.50;;;;;;;;4970846;28;45456;-71
2021/12/18 12:20:05;;;;;;;;;15.50;13.25;;;;;;;;4988236;28;45826;-71
2021/12/18 12:22:42;;;;;;;;;21.25;19.00;;;;;;;;4973070;28;46983;-69
2021/12/18 12:25:09;;;;;;;;;23.50;17.50;;;;;;;;4966041;28;45399;-70
2021/12/18 12:27:38;;;;;;;;;19.50;17.50;;;;;;;;4961913;28;45410;-69
2021/12/18 12:30:06;;;;;;;;;13.25;12.25;;;;;;;;4965668;28;45447;-70
2021/12/18 12:32:31;;;;;;;;;23.25;19.50;;;;;;;;4968308;28;45686;-70
2021/12/18 12:35:06;;;;;;;;;20.75;17.75;;;;;;;;4965855;28;45693;-70
2021/12/18 12:37:36;;;;;;;;;19.50;17.50;;;;;;;;4967931;28;45381;-69
2021/12/18 12:40:06;;;;;;;;;17.00;15.00;;;;;;;;4966106;28;45528;-68
2021/12/18 12:42:32;;;;;;;;;16.50;14.50;;;;;;;;4982426;28;47155;-68
2021/12/18 12:45:03;;;;;;;;;20.75;16.00;;;;;;;;4981910;27;45418;-68
2021/12/18 12:47:30;;;;;;;;;18.25;14.25;;;;;;;;4968879;28;45473;-68
2021/12/18 12:50:11;;;;;;;;;18.25;17.00;;;;;;;;4973978;28;45505;-68
2021/12/18 12:52:48;;;;;;;;;18.00;18.00;;;;;;;;4971557;28;45417;-68
2021/12/18 12:55:15;;;;;;;;;16.25;14.00;;;;;;;;4967421;28;45476;-67
2021/12/18 12:57:45;;;;;;;;;19.00;17.25;;;;;;;;4973192;28;49773;-66
2021/12/18 13:00:10;;;;;;;;;18.50;15.00;;;;;;;;4966015;28;45470;-67
2021/12/18 13:02:39;;;;;;;;;19.00;18.00;;;;;;;;4975834;28;46122;-67
2021/12/18 13:05:07;;;;;;;;;19.00;17.25;;;;;;;;4960286;28;45900;-67
2021/12/18 13:07:33;;;;;;;;;23.00;17.25;;;;;;;;4972298;28;45568;-67
2021/12/18 13:09:58;;;;;;;;;17.00;16.50;;;;;;;;4970298;28;45302;-67
2021/12/18 13:12:23;;;;;;;;;20.00;17.00;;;;;;;;4964406;28;45506;-68
2021/12/18 13:14:49;;;;;;;;;19.75;17.50;;;;;;;;4968346;28;45342;-68
2021/12/18 13:17:18;;;;;;;;;18.00;14.67;;;;;;;;4968817;28;45649;-68
2021/12/18 13:19:56;;;;;;;;;16.50;16.00;;;;;;;;4957528;28;45595;-68
2021/12/18 13:22:25;;;;;;;;;16.75;11.25;;;;;;;;4957487;28;46599;-68
2021/12/18 13:25:07;;;;;;;;;17.25;15.75;;;;;;;;4964871;28;45923;-66
2021/12/18 13:27:33;;;;;;;;;14.25;14.25;;;;;;;;4965477;28;45641;-67
2021/12/18 13:30:11;;;;;;;;;17.25;15.75;;;;;;;;4966970;28;45556;-67
2021/12/18 13:32:36;;;;;;;;;20.00;17.00;;;;;;;;4952616;28;46261;-68
2021/12/18 13:35:01;;;;;;;;;17.75;15.00;;;;;;;;4966575;28;45348;-68
2021/12/18 13:37:26;;;;;;;;;16.00;15.00;;;;;;;;4966755;28;45506;-69
2021/12/18 13:39:53;;;;;;;;;17.00;14.67;;;;;;;;4966872;28;45612;-68
2021/12/18 13:42:22;;;;;;;;;18.25;17.25;;;;;;;;4971713;28;46245;-68
2021/12/18 13:44:55;;;;;;;;;16.25;15.75;;;;;;;;4966959;28;45514;-68
2021/12/18 13:47:22;;;;;;;;;20.00;15.25;;;;;;;;4953295;28;45458;-68
2021/12/18 13:49:48;;;;;;;;;18.50;15.00;;;;;;;;4966677;28;45560;-68
2021/12/18 13:52:29;;;;;;;;;17.75;16.75;;;;;;;;4968703;28;46355;-69
2021/12/18 13:54:54;;;;;;;;;19.25;17.00;;;;;;;;4967008;28;45431;-68
2021/12/18 13:57:21;;;;;;;;;15.00;13.33;;;;;;;;4964908;28;45327;-69
2021/12/18 13:59:55;;;;;;;;;18.25;16.25;;;;;;;;4965570;28;45675;-69
2021/12/18 14:02:21;;;;;;;;;12.25;12.25;;;;;;;;4954284;28;45464;-68
2021/12/18 14:04:46;;;;;;;;;16.25;14.00;;;;;;;;4966242;28;45812;-68
2021/12/18 14:07:11;;;;;;;;;16.00;13.25;;;;;;;;4963429;28;45603;-68
2021/12/18 14:09:37;;;;;;;;;14.00;14.00;;;;;;;;4957869;28;45585;-68
2021/12/18 14:12:04;;;;;;;;;17.25;13.50;;;;;;;;4953282;28;46217;-68
2021/12/18 14:14:42;;;;;;;;;18.25;16.25;;;;;;;;4964466;28;45545;-68
2021/12/18 14:17:08;;;;;;;;;16.00;15.00;;;;;;;;4956673;28;45570;-68
2021/12/18 14:19:38;;;;;;;;;17.75;15.75;;;;;;;;4953129;28;45554;-68
2021/12/18 14:22:08;;;;;;;;;15.50;13.75;;;;;;;;4952190;28;46851;-69
2021/12/18 14:24:34;;;;;;;;;14.00;12.50;;;;;;;;4953438;28;45502;-69
2021/12/18 14:27:01;;;;;;;;;15.50;14.50;;;;;;;;4953629;28;45690;-68
2021/12/18 14:29:30;;;;;;;;;14.50;12.25;;;;;;;;4953078;28;45407;-68
2021/12/18 14:32:00;;;;;;;;;13.50;12.50;;;;;;;;4950637;28;46127;-68
2021/12/18 14:34:25;;;;;;;;;12.50;11.50;;;;;;;;4951588;28;45785;-68
2021/12/18 14:36:50;;;;;;;;;18.67;15.67;;;;;;;;4953637;28;45709;-68
2021/12/18 14:39:16;;;;;;;;;16.67;13.33;;;;;;;;4955712;28;45513;-68
2021/12/18 14:41:54;;;;;;;;;15.00;13.50;;;;;;;;4953316;28;46852;-69
2021/12/18 14:44:19;;;;;;;;;18.00;12.00;;;;;;;;4951265;28;45576;-68
2021/12/18 14:46:45;;;;;;;;;22.33;14.67;;;;;;;;4952394;28;45482;-68
2021/12/18 14:49:10;;;;;;;;;13.75;13.75;;;;;;;;4953593;28;46558;-69
2021/12/18 14:51:37;;;;;;;;;18.50;15.25;;;;;;;;4956872;28;46195;-68
2021/12/18 14:54:04;;;;;;;;;14.25;12.00;;;;;;;;4955468;28;45934;-68
2021/12/18 14:56:29;;;;;;;;;14.75;12.75;;;;;;;;4953926;28;46577;-68
2021/12/18 14:58:54;;;;;;;;;17.33;13.67;;;;;;;;4952165;28;45818;-69
2021/12/18 15:01:20;;;;;;;;;11.00;10.67;;;;;;;;4959765;28;46140;-68
2021/12/18 15:03:49;;;;;;;;;14.25;10.50;;;;;;;;4956174;28;45371;-68
2021/12/18 15:06:16;;;;;;;;;15.25;12.00;;;;;;;;4957014;28;45545;-68
2021/12/18 15:08:51;;;;;;;;;18.00;14.50;;;;;;;;4959943;28;45470;-68
2021/12/18 15:11:46;;;;;;;;;17.00;13.25;;;;;;;;4952645;28;45430;-68
2021/12/18 15:14:13;;;;;;;;;13.75;12.25;;;;;;;;4945127;28;45931;-68
2021/12/18 15:16:55;;;;;;;;;12.75;12.00;;;;;;;;4966348;28;45436;-68
2021/12/18 15:19:22;;;;;;;;;11.00;11.00;;;;;;;;4968280;28;45416;-68
2021/12/18 15:21:51;;;;;;;;;11.75;11.75;;;;;;;;4966621;28;45321;-69
2021/12/18 15:24:18;;;;;;;;;16.50;13.25;;;;;;;;4967153;28;45837;-68
2021/12/18 15:26:43;;;;;;;;;17.25;15.50;;;;;;;;4967843;28;45403;-68
2021/12/18 15:29:10;;;;;;;;;14.75;12.25;;;;;;;;4970353;28;45624;-68
2021/12/18 15:31:36;;;;;;;;;14.75;14.25;;;;;;;;4968440;28;46548;-68
2021/12/18 15:34:02;;;;;;;;;13.00;13.00;;;;;;;;4967207;28;45468;-68
2021/12/18 15:36:27;;;;;;;;;17.00;14.50;;;;;;;;4966868;28;45544;-69
2021/12/18 15:38:53;;;;;;;;;10.33;9.67;;;;;;;;4966591;28;45420;-68
2021/12/18 15:41:20;;;;;;;;;12.75;12.75;;;;;;;;4970689;28;46900;-68
2021/12/18 15:43:45;;;;;;;;;19.00;12.75;;;;;;;;4968817;28;46265;-68
2021/12/18 15:46:11;;;;;;;;;13.50;10.75;;;;;;;;4959008;28;45434;-68
2021/12/18 15:48:36;;;;;;;;;11.75;11.25;;;;;;;;4961965;28;45540;-69
2021/12/18 15:51:03;;;;;;;;;17.75;13.25;;;;;;;;4966167;28;46017;-68
2021/12/18 15:53:28;;;;;;;;;15.50;10.75;;;;;;;;4969520;28;45546;-68
2021/12/18 15:55:53;;;;;;;;;13.00;10.25;;;;;;;;4956761;28;45442;-68
2021/12/18 15:58:19;;;;;;;;;17.00;12.67;;;;;;;;4965732;28;45481;-68
2021/12/18 16:00:44;;;;;;;;;17.00;12.25;;;;;;;;4966099;28;45328;-68
2021/12/18 16:03:10;;;;;;;;;16.50;15.25;;;;;;;;4976153;28;45656;-68
2021/12/18 16:05:36;;;;;;;;;14.75;14.25;;;;;;;;4976571;28;45559;-68
2021/12/18 16:08:04;;;;;;;;;20.50;14.00;;;;;;;;4969333;28;45427;-68
2021/12/18 16:10:30;;;;;;;;;14.50;14.50;;;;;;;;4968486;28;47569;-68
2021/12/18 16:12:55;;;;;;;;;17.67;14.67;;;;;;;;4965208;28;45565;-79
2021/12/18 16:15:21;;;;;;;;;17.33;15.67;;;;;;;;4965986;28;45693;-80
2021/12/18 16:17:46;;;;;;;;;18.25;16.75;;;;;;;;4966344;28;45540;-79
2021/12/18 16:20:12;;;;;;;;;18.25;15.00;;;;;;;;4969964;28;46025;-79
2021/12/18 16:22:38;;;;;;;;;17.25;14.75;;;;;;;;4968097;28;45451;-80
2021/12/18 16:25:05;;;;;;;;;17.00;16.00;;;;;;;;4965013;28;45451;-80
2021/12/18 16:27:30;;;;;;;;;23.25;21.00;;;;;;;;4965964;28;45595;-79
2021/12/18 16:29:55;;;;;;;;;23.33;17.67;;;;;;;;4965689;28;46338;-79
2021/12/18 16:32:21;;;;;;;;;21.67;18.67;;;;;;;;4970898;28;45407;-80
2021/12/18 16:34:46;;;;;;;;;21.33;20.00;;;;;;;;4968356;28;45331;-79
2021/12/18 16:37:13;;;;;;;;;27.33;21.33;;;;;;;;4965731;28;45555;-79
2021/12/18 16:39:38;;;;;;;;;21.00;19.00;;;;;;;;4964330;28;48403;-80
2021/12/18 16:42:05;;;;;;;;;33.00;25.67;;;;;;;;4965814;28;45787;-79
2021/12/18 16:44:30;;;;;;;;;31.25;21.25;;;;;;;;4968696;28;45395;-79
2021/12/18 16:46:56;;;;;;;;;24.50;21.50;;;;;;;;4968415;28;45428;-79
2021/12/18 16:49:21;;;;;;;;;26.75;19.50;;;;;;;;4975219;28;46477;-79
2021/12/18 16:51:46;;;;;;;;;26.00;20.00;;;;;;;;4965696;28;45529;-79
2021/12/18 16:54:11;;;;;;;;;30.00;23.00;;;;;;;;4965656;28;45740;-81
2021/12/18 16:56:37;;;;;;;;;26.33;23.00;;;;;;;;4968246;28;45493;-79
2021/12/18 16:59:02;;;;;;;;;30.00;22.33;;;;;;;;4954286;28;46441;-79
2021/12/18 17:01:27;;;;;;;;;26.67;21.33;;;;;;;;4956718;28;45380;-80
2021/12/18 17:03:57;;;;;;;;;26.50;24.25;;;;;;;;4957579;28;45448;-80
2021/12/18 17:06:22;;;;;;;;;30.50;25.50;;;;;;;;4959462;28;45502;-80
2021/12/18 17:08:48;;;;;;;;;26.33;25.33;;;;;;;;4965442;28;45521;-80
2021/12/18 17:11:15;;;;;;;;;31.67;26.33;;;;;;;;4981640;28;45428;-80
2021/12/18 17:13:41;;;;;;;;;31.50;24.00;;;;;;;;4967917;28;45367;-79
2021/12/18 17:16:09;;;;;;;;;32.25;29.25;;;;;;;;4967132;28;45475;-78
2021/12/18 17:18:37;;;;;;;;;30.75;26.50;;;;;;;;4965091;28;45662;-79
2021/12/18 17:21:02;;;;;;;;;38.00;32.00;;;;;;;;4965296;28;45399;-79
2021/12/18 17:23:28;;;;;;;;;38.00;31.33;;;;;;;;4966815;28;45392;-80
2021/12/18 17:25:53;;;;;;;;;36.75;31.75;;;;;;;;4968235;28;45425;-79
2021/12/18 17:28:19;;;;;;;;;33.00;29.00;;;;;;;;4966210;28;45444;-79
2021/12/18 17:30:44;;;;;;;;;38.00;31.00;;;;;;;;4964835;28;45783;-79
2021/12/18 17:33:10;;;;;;;;;39.67;31.33;;;;;;;;4962789;28;45557;-79
2021/12/18 17:35:35;;;;;;;;;37.25;32.50;;;;;;;;4968378;28;45551;-79
2021/12/18 17:38:00;;;;;;;;;38.75;32.75;;;;;;;;4967414;28;46471;-79
2021/12/18 17:40:26;;;;;;;;;39.67;31.33;;;;;;;;4997314;28;45563;-79
2021/12/18 17:42:52;;;;;;;;;47.33;36.33;;;;;;;;4965540;28;45516;-79
2021/12/18 17:45:17;;;;;;;;;48.50;36.00;;;;;;;;4964848;28;45411;-78
2021/12/18 17:47:44;;;;;;;;;34.50;32.00;;;;;;;;4965913;28;46138;-78
2021/12/18 17:50:10;;;;;;;;;45.75;34.00;;;;;;;;4954581;28;45468;-79
2021/12/18 17:52:35;;;;;;;;;38.67;33.67;;;;;;;;4955698;28;45625;-80
2021/12/18 17:55:00;;;;;;;;;45.25;35.25;;;;;;;;4956940;28;45645;-79
2021/12/18 17:57:26;;;;;;;;;48.00;35.33;;;;;;;;4956345;28;46395;-79
2021/12/18 17:59:52;;;;;;;;;44.75;35.00;;;;;;;;4954821;28;45763;-81
2021/12/18 18:02:18;;;;;;;;;50.25;35.00;;;;;;;;4955692;28;46222;-80
2021/12/18 18:04:43;;;;;;;;;45.00;35.00;;;;;;;;4973905;28;46036;-78
2021/12/18 18:07:08;;;;;;;;;50.75;36.00;;;;;;;;4960157;28;46238;-79
2021/12/18 18:09:38;;;;;;;;;45.67;36.00;;;;;;;;4957236;28;45447;-79
2021/12/18 18:12:03;;;;;;;;;50.25;38.75;;;;;;;;4975538;28;45475;-80
2021/12/18 18:14:28;;;;;;;;;48.00;35.75;;;;;;;;4975251;28;45597;-79
2021/12/18 18:16:57;;;;;;;;;41.67;35.67;;;;;;;;4953624;28;45496;-80
2021/12/18 18:19:24;;;;;;;;;53.25;39.00;;;;;;;;4954818;28;45861;-79
2021/12/18 18:21:50;;;;;;;;;46.50;36.75;;;;;;;;4957055;28;45583;-79
2021/12/18 18:24:15;;;;;;;;;57.33;41.00;;;;;;;;4956556;28;45485;-79
2021/12/18 18:26:40;;;;;;;;;49.33;37.33;;;;;;;;4955107;28;48218;-79
2021/12/18 18:29:06;;;;;;;;;54.25;38.75;;;;;;;;4968495;27;45481;-80
2021/12/18 18:31:31;;;;;;;;;51.25;40.75;;;;;;;;4952010;28;45661;-79
2021/12/18 18:33:57;;;;;;;;;56.50;42.00;;;;;;;;4955760;28;45701;-79
2021/12/18 18:36:22;;;;;;;;;54.67;39.00;;;;;;;;4955053;28;47169;-80
2021/12/18 18:38:47;;;;;;;;;54.75;38.25;;;;;;;;4987867;27;45566;-79
2021/12/18 18:41:13;;;;;;;;;54.75;39.75;;;;;;;;5031293;28;45348;-80
2021/12/18 18:43:41;;;;;;;;;58.25;41.25;;;;;;;;4971636;28;45552;-80
2021/12/18 18:46:15;;;;;;;;;56.00;40.25;;;;;;;;4970330;28;46148;-80
2021/12/18 18:48:41;;;;;;;;;56.25;42.50;;;;;;;;4965811;28;45406;-80
2021/12/18 18:51:07;;;;;;;;;57.50;42.00;;;;;;;;4974376;28;45796;-80
2021/12/18 18:53:32;;;;;;;;;56.00;42.00;;;;;;;;4971142;28;45632;-80
2021/12/18 18:55:58;;;;;;;;;57.25;42.50;;;;;;;;4976714;28;45567;-78
2021/12/18 18:58:23;;;;;;;;;56.25;40.50;;;;;;;;4974882;28;45489;-80
2021/12/18 19:00:49;;;;;;;;;58.33;43.33;;;;;;;;4967753;28;45786;-80
2021/12/18 19:03:14;;;;;;;;;55.50;41.50;;;;;;;;4976246;28;45408;-78
2021/12/18 19:05:40;;;;;;;;;57.75;44.25;;;;;;;;4969797;28;47825;-78
2021/12/18 19:08:05;;;;;;;;;55.00;40.00;;;;;;;;4976946;28;45629;-79
2021/12/18 19:10:32;;;;;;;;;64.00;49.25;;;;;;;;4973085;28;45460;-79
2021/12/18 19:12:57;;;;;;;;;61.50;43.25;;;;;;;;4969007;28;45779;-80
2021/12/18 19:15:22;;;;;;;;;60.67;44.33;;;;;;;;4977020;28;46660;-78
2021/12/18 19:17:48;;;;;;;;;61.33;46.67;;;;;;;;4968282;28;45588;-79
2021/12/18 19:20:15;;;;;;;;;59.75;45.75;;;;;;;;4978205;28;45349;-79
2021/12/18 19:22:42;;;;;;;;;61.25;46.75;;;;;;;;4974371;28;45378;-81
2021/12/18 19:25:08;;;;;;;;;60.50;46.50;;;;;;;;4968431;28;47679;-81
2021/12/18 19:27:34;;;;;;;;;68.00;49.00;;;;;;;;4975867;28;45508;-80
2021/12/18 19:30:00;;;;;;;;;56.00;42.25;;;;;;;;4968362;28;45441;-79
2021/12/18 19:32:25;;;;;;;;;64.33;48.00;;;;;;;;4976813;28;45517;-80
2021/12/18 19:34:52;;;;;;;;;61.00;48.00;;;;;;;;4972541;28;46360;-79
2021/12/18 19:37:18;;;;;;;;;61.25;47.25;;;;;;;;4971782;28;45995;-79
2021/12/18 19:39:43;;;;;;;;;62.50;48.25;;;;;;;;4974213;28;45751;-80
2021/12/18 19:42:08;;;;;;;;;62.00;45.33;;;;;;;;4967824;28;45406;-79
2021/12/18 19:44:33;;;;;;;;;63.00;48.75;;;;;;;;4972511;28;47680;-79
2021/12/18 19:46:59;;;;;;;;;62.67;47.67;;;;;;;;4974401;28;45677;-79
2021/12/18 19:49:26;;;;;;;;;58.00;46.00;;;;;;;;4972612;28;45903;-81
2021/12/18 19:51:51;;;;;;;;;61.75;47.25;;;;;;;;4978952;28;45568;-78
2021/12/18 19:54:17;;;;;;;;;59.00;48.00;;;;;;;;4965896;28;47417;-79
2021/12/18 19:56:42;;;;;;;;;63.00;46.00;;;;;;;;4973641;28;45523;-78
2021/12/18 19:59:07;;;;;;;;;58.00;43.00;;;;;;;;4975267;28;45862;-81
2021/12/18 20:01:33;;;;;;;;;62.00;44.75;;;;;;;;4973760;28;45407;-80
2021/12/18 20:06:43;;;;;;;;;52.00;40.25;;;;;;;;4967439;28;45849;-80
2021/12/18 20:09:08;;;;;;;;;61.00;44.25;;;;;;;;4976847;28;45413;-79
2021/12/18 20:11:33;;;;;;;;;57.00;45.00;;;;;;;;4971998;28;45485;-79
2021/12/18 20:14:22;;;;;;;;;61.67;47.00;;;;;;;;4967985;28;46610;-79
2021/12/18 20:16:50;;;;;;;;;62.00;43.75;;;;;;;;4959569;28;46048;-80
2021/12/18 20:19:15;;;;;;;;;115.00;85.00;;;;;;;;4960799;28;48185;-79
2021/12/18 20:21:41;;;;;;;;;124.33;95.67;;;;;;;;4960467;28;45543;-79
2021/12/18 20:24:07;;;;;;;;;119.33;95.33;;;;;;;;4959053;28;46160;-80
2021/12/18 20:26:32;;;;;;;;;66.75;48.25;;;;;;;;4972843;27;45546;-79
2021/12/18 20:28:58;;;;;;;;;55.00;39.00;;;;;;;;4961265;28;45358;-79
2021/12/18 20:31:23;;;;;;;;;55.75;39.00;;;;;;;;4960344;28;45460;-79
2021/12/18 20:33:48;;;;;;;;;51.00;39.25;;;;;;;;4959860;28;47335;-79
2021/12/18 20:36:14;;;;;;;;;53.33;40.00;;;;;;;;4957434;28;45548;-79
2021/12/18 20:38:39;;;;;;;;;54.50;40.75;;;;;;;;4958688;28;45529;-80
2021/12/18 20:41:06;;;;;;;;;55.00;40.33;;;;;;;;4958329;28;45348;-80
2021/12/18 20:43:38;;;;;;;;;50.75;38.00;;;;;;;;4975776;28;45465;-80
2021/12/18 20:46:04;;;;;;;;;57.50;38.00;;;;;;;;4962713;28;45532;-79
2021/12/18 20:48:30;;;;;;;;;53.75;37.50;;;;;;;;4969050;28;45535;-79
2021/12/18 20:50:55;;;;;;;;;54.00;36.00;;;;;;;;4990691;27;45575;-79
2021/12/18 20:53:21;;;;;;;;;53.25;36.00;;;;;;;;4957485;28;45474;-80
2021/12/18 20:55:46;;;;;;;;;48.67;39.00;;;;;;;;4957644;28;45761;-79
2021/12/18 20:58:11;;;;;;;;;47.50;35.75;;;;;;;;4954498;28;45372;-80
2021/12/18 21:00:45;;;;;;;;;52.00;35.00;;;;;;;;4955532;28;45684;-79
2021/12/18 21:03:13;;;;;;;;;49.25;36.50;;;;;;;;4958956;28;47746;-80
2021/12/18 21:05:39;;;;;;;;;53.50;38.00;;;;;;;;4972182;28;46076;-80
2021/12/18 21:08:04;;;;;;;;;48.00;34.00;;;;;;;;4956982;28;45608;-81
2021/12/18 21:10:31;;;;;;;;;53.00;35.67;;;;;;;;4961112;28;45569;-79
2021/12/18 21:12:57;;;;;;;;;43.00;34.75;;;;;;;;4957376;28;45743;-80
2021/12/18 21:15:22;;;;;;;;;51.25;35.75;;;;;;;;4966221;28;45798;-79
2021/12/18 21:17:49;;;;;;;;;45.75;35.25;;;;;;;;4955986;28;45938;-81
2021/12/18 21:20:15;;;;;;;;;50.00;36.25;;;;;;;;4957171;28;45554;-81
2021/12/18 21:22:41;;;;;;;;;50.00;34.50;;;;;;;;4961066;28;46557;-80
2021/12/18 21:25:07;;;;;;;;;51.50;37.50;;;;;;;;4989838;27;45474;-80
2021/12/18 21:27:32;;;;;;;;;53.75;38.25;;;;;;;;4957885;28;45552;-78
2021/12/18 21:29:57;;;;;;;;;46.75;35.00;;;;;;;;4956606;28;45682;-79
2021/12/18 21:32:23;;;;;;;;;48.50;35.75;;;;;;;;4964045;28;46200;-78
2021/12/18 21:37:17;;;;;;;;;50.00;36.00;;;;;;;;4961106;28;45470;-80
2021/12/18 21:39:45;;;;;;;;;50.50;35.50;;;;;;;;4959904;28;45515;-79
2021/12/18 21:42:12;;;;;;;;;48.25;36.00;;;;;;;;4956030;28;49758;-80
2021/12/18 21:44:37;;;;;;;;;43.50;36.00;;;;;;;;4957761;28;45419;-81
2021/12/18 21:47:02;;;;;;;;;53.75;37.75;;;;;;;;4958579;28;45621;-81
2021/12/18 21:49:28;;;;;;;;;53.50;38.25;;;;;;;;4958847;28;45942;-81
2021/12/18 21:51:54;;;;;;;;;41.50;35.50;;;;;;;;4958886;28;45610;-80
2021/12/18 21:54:19;;;;;;;;;53.25;35.75;;;;;;;;4958695;28;45681;-81
2021/12/18 21:56:47;;;;;;;;;52.00;38.67;;;;;;;;4960512;28;46313;-81
2021/12/18 21:59:12;;;;;;;;;43.75;34.00;;;;;;;;4973546;28;45646;-81
2021/12/18 22:01:39;;;;;;;;;48.75;37.00;;;;;;;;4957682;28;45556;-80
2021/12/18 22:04:06;;;;;;;;;49.25;37.75;;;;;;;;4960173;28;46149;-81
2021/12/18 22:06:32;;;;;;;;;42.00;31.75;;;;;;;;4957544;28;45501;-80
2021/12/18 22:08:57;;;;;;;;;40.25;31.75;;;;;;;;4975532;28;45627;-80
2021/12/18 22:11:25;;;;;;;;;50.25;37.00;;;;;;;;4962589;28;45691;-80
2021/12/18 22:13:50;;;;;;;;;46.25;35.25;;;;;;;;4956145;28;45857;-79
2021/12/18 22:16:15;;;;;;;;;46.00;33.33;;;;;;;;4979566;28;45573;-79
2021/12/18 22:18:41;;;;;;;;;43.33;34.67;;;;;;;;4969045;28;45585;-79
2021/12/18 22:21:06;;;;;;;;;45.00;31.50;;;;;;;;4991920;27;47039;-79
2021/12/18 22:23:31;;;;;;;;;48.00;34.50;;;;;;;;4956869;28;45410;-79
2021/12/18 22:25:57;;;;;;;;;40.50;33.25;;;;;;;;4972441;28;45667;-82
2021/12/18 22:28:22;;;;;;;;;44.00;31.50;;;;;;;;4959712;28;45382;-81
2021/12/18 22:30:48;;;;;;;;;36.00;30.00;;;;;;;;4956858;28;48550;-81
2021/12/18 22:33:16;;;;;;;;;36.00;29.25;;;;;;;;4961879;28;45947;-81
2021/12/18 22:35:41;;;;;;;;;39.00;33.75;;;;;;;;4955664;28;45565;-81
2021/12/18 22:38:07;;;;;;;;;43.50;31.75;;;;;;;;4956161;28;45557;-81
2021/12/18 22:40:33;;;;;;;;;44.00;32.00;;;;;;;;4960028;28;47396;-80
2021/12/18 22:42:58;;;;;;;;;43.50;32.25;;;;;;;;4956722;28;45427;-81
2021/12/18 22:45:23;;;;;;;;;40.25;32.50;;;;;;;;4965432;28;45457;-81
2021/12/18 22:47:51;;;;;;;;;44.75;32.25;;;;;;;;4989235;28;45448;-80
2021/12/18 22:50:20;;;;;;;;;46.25;32.00;;;;;;;;4956057;28;46527;-80
2021/12/18 22:52:45;;;;;;;;;38.25;32.25;;;;;;;;4973267;28;46014;-81
2021/12/18 22:55:11;;;;;;;;;46.75;33.50;;;;;;;;4967253;28;45533;-79
2021/12/18 22:57:37;;;;;;;;;46.25;34.00;;;;;;;;4973419;28;45504;-80
2021/12/18 23:00:05;;;;;;;;;43.25;32.50;;;;;;;;4965404;28;45483;-81
2021/12/18 23:02:31;;;;;;;;;51.50;36.75;;;;;;;;4973254;27;46017;-81
2021/12/18 23:04:56;;;;;;;;;41.33;33.00;;;;;;;;4972517;28;45422;-81
2021/12/18 23:07:21;;;;;;;;;48.50;32.50;;;;;;;;4970004;28;45529;-81
2021/12/18 23:09:46;;;;;;;;;39.50;32.25;;;;;;;;4970875;28;46352;-81
2021/12/18 23:12:19;;;;;;;;;39.67;34.33;;;;;;;;4964876;28;45462;-81
2021/12/18 23:15:01;;;;;;;;;42.25;32.75;;;;;;;;4971343;28;45644;-81
2021/12/18 23:17:40;;;;;;;;;48.00;36.00;;;;;;;;4971985;28;46467;-81
2021/12/18 23:20:21;;;;;;;;;39.75;33.00;;;;;;;;4973614;28;46396;-81
2021/12/18 23:22:47;;;;;;;;;42.25;32.75;;;;;;;;4970520;28;45834;-81
2021/12/18 23:25:13;;;;;;;;;46.50;35.00;;;;;;;;4967884;28;45413;-81
2021/12/18 23:27:39;;;;;;;;;43.25;35.50;;;;;;;;4971463;28;45474;-81
2021/12/18 23:30:05;;;;;;;;;34.25;29.75;;;;;;;;4964928;28;46457;-81
2021/12/18 23:32:31;;;;;;;;;34.75;27.00;;;;;;;;4972593;28;46097;-81
2021/12/18 23:35:04;;;;;;;;;38.00;34.50;;;;;;;;4970975;28;45469;-81
2021/12/18 23:37:30;;;;;;;;;47.00;27.25;;;;;;;;4968334;28;45462;-82
2021/12/18 23:39:55;;;;;;;;;46.00;28.00;;;;;;;;4975180;28;46487;-81
2021/12/18 23:42:20;;;;;;;;;38.67;32.00;;;;;;;;4974636;28;45820;-81
2021/12/18 23:47:30;;;;;;;;;36.25;30.25;;;;;;;;4967832;28;45519;-81
2021/12/18 23:49:55;;;;;;;;;36.33;30.00;;;;;;;;4975923;28;46347;-81
2021/12/18 23:52:20;;;;;;;;;35.25;30.25;;;;;;;;4970765;28;45440;-81
2021/12/18 23:54:46;;;;;;;;;37.00;30.25;;;;;;;;4966342;28;45465;-82
2021/12/18 23:57:11;;;;;;;;;41.67;32.00;;;;;;;;4976170;28;45616;-81
2021/12/18 23:59:36;;;;;;;;;38.00;31.33;;;;;;;;4970493;28;46882;-81
